createdAt,value
2022-11-25T00:01:19.695Z,7.90
2022-11-25T00:04:07.218Z,7.45
2022-11-25T00:06:54.471Z,8.25
2022-11-25T00:09:42.080Z,8.35
2022-11-25T00:12:29.185Z,8.55
2022-11-25T00:15:16.573Z,7.97
2022-11-25T00:18:03.678Z,9.15
2022-11-25T00:20:51.310Z,7.45
2022-11-25T00:23:39.604Z,7.50
2022-11-25T00:26:28.614Z,7.90
2022-11-25T00:29:15.905Z,7.22
2022-11-25T00:32:03.571Z,8.00
2022-11-25T00:34:51.183Z,7.65
2022-11-25T00:37:38.389Z,8.20
2022-11-25T00:40:26.813Z,8.05
2022-11-25T00:43:32.247Z,7.45
2022-11-25T00:46:19.844Z,7.92
2022-11-25T00:49:07.724Z,7.85
2022-11-25T00:51:55.248Z,8.53
2022-11-25T00:54:44.582Z,7.40
2022-11-25T00:57:32.085Z,8.55
2022-11-25T01:00:19.693Z,7.17
2022-11-25T01:03:06.953Z,7.47
2022-11-25T01:05:54.636Z,7.03
2022-11-25T01:08:41.931Z,7.12
2022-11-25T01:11:29.206Z,7.47
2022-11-25T01:14:16.480Z,6.17
2022-11-25T01:17:04.277Z,7.95
2022-11-25T01:19:51.696Z,7.12
2022-11-25T01:22:38.902Z,7.33
2022-11-25T01:25:26.133Z,8.03
2022-11-25T01:28:13.922Z,7.03
2022-11-25T01:31:07.684Z,6.78
2022-11-25T01:33:58.007Z,5.90
2022-11-25T01:36:45.276Z,7.40
2022-11-25T01:39:33.413Z,7.12
2022-11-25T01:42:21.142Z,7.37
2022-11-25T01:45:28.807Z,7.00
2022-11-25T01:48:31.054Z,7.12
2022-11-25T01:51:39.802Z,7.40
2022-11-25T01:54:29.927Z,6.92
2022-11-25T01:57:20.067Z,6.92
2022-11-25T02:00:09.666Z,7.53
2022-11-25T02:02:59.309Z,7.28
2022-11-25T02:05:55.843Z,7.45
2022-11-25T02:08:45.964Z,7.57
2022-11-25T02:11:35.366Z,7.05
2022-11-25T02:14:24.350Z,7.25
2022-11-25T02:17:12.041Z,7.22
2022-11-25T02:20:08.784Z,7.10
2022-11-25T02:23:14.941Z,7.87
2022-11-25T02:26:02.619Z,7.30
2022-11-25T02:28:49.817Z,6.55
2022-11-25T02:31:37.129Z,7.37
2022-11-25T02:34:24.319Z,6.28
2022-11-25T02:37:11.637Z,6.97
2022-11-25T02:39:59.111Z,7.90
2022-11-25T02:42:47.655Z,7.72
2022-11-25T02:45:37.992Z,8.23
2022-11-25T02:48:45.824Z,7.95
2022-11-25T02:51:18.108Z,8.13
2022-11-25T02:54:06.171Z,9.18
2022-11-25T02:56:53.735Z,8.65
2022-11-25T02:59:41.376Z,7.80
2022-11-25T03:02:28.609Z,8.38
2022-11-25T03:05:15.849Z,8.15
2022-11-25T03:08:04.309Z,8.03
2022-11-25T03:10:51.772Z,7.25
2022-11-25T03:13:39.317Z,7.90
2022-11-25T03:16:26.915Z,9.28
2022-11-25T03:19:14.162Z,8.98
2022-11-25T03:22:01.524Z,9.48
2022-11-25T03:24:48.662Z,8.50
2022-11-25T03:27:36.846Z,8.88
2022-11-25T03:30:26.757Z,8.50
2022-11-25T03:33:14.017Z,8.43
2022-11-25T03:36:01.218Z,9.80
2022-11-25T03:38:48.825Z,7.75
2022-11-25T03:41:36.891Z,7.30
2022-11-25T03:44:24.276Z,10.28
2022-11-25T03:47:12.625Z,8.85
2022-11-25T03:50:00.292Z,9.58
2022-11-25T03:52:47.750Z,9.83
2022-11-25T03:55:35.176Z,10.48
2022-11-25T03:58:22.589Z,9.58
2022-11-25T04:01:09.920Z,10.72
2022-11-25T04:03:57.037Z,9.78
2022-11-25T04:06:44.159Z,11.00
2022-11-25T04:09:31.691Z,11.25
2022-11-25T04:12:36.992Z,9.90
2022-11-25T04:15:24.549Z,9.73
2022-11-25T04:18:11.843Z,10.50
2022-11-25T04:20:59.154Z,9.88
2022-11-25T04:23:46.532Z,9.75
2022-11-25T04:26:33.728Z,10.75
2022-11-25T04:29:21.618Z,10.78
2022-11-25T04:32:08.951Z,10.88
2022-11-25T04:34:56.138Z,9.83
2022-11-25T04:37:43.354Z,9.58
2022-11-25T04:40:30.923Z,10.55
2022-11-25T04:43:18.262Z,9.80
2022-11-25T04:46:13.874Z,8.55
2022-11-25T04:48:54.615Z,9.20
2022-11-25T04:51:42.059Z,9.90
2022-11-25T04:54:29.502Z,10.35
2022-11-25T04:57:17.150Z,9.33
2022-11-25T05:00:06.059Z,9.70
2022-11-25T05:02:53.456Z,10.15
2022-11-25T05:05:40.576Z,9.33
2022-11-25T05:08:28.014Z,10.28
2022-11-25T05:11:15.276Z,9.33
2022-11-25T05:14:02.486Z,10.20
2022-11-25T05:16:50.078Z,9.93
2022-11-25T05:19:37.519Z,10.85
2022-11-25T05:22:27.927Z,9.88
2022-11-25T05:25:16.529Z,9.20
2022-11-25T05:28:04.487Z,9.60
2022-11-25T05:30:51.657Z,9.13
2022-11-25T05:33:39.270Z,10.50
2022-11-25T05:36:26.720Z,10.72
2022-11-25T05:39:13.788Z,9.75
2022-11-25T05:42:01.161Z,9.40
2022-11-25T05:44:48.553Z,10.20
2022-11-25T05:47:35.718Z,10.50
2022-11-25T05:50:23.108Z,9.48
2022-11-25T05:53:11.329Z,10.53
2022-11-25T05:56:01.481Z,9.05
2022-11-25T05:58:49.056Z,9.15
2022-11-25T06:01:36.430Z,8.93
2022-11-25T06:04:23.581Z,12.05
2022-11-25T06:07:10.728Z,10.72
2022-11-25T06:10:02.861Z,9.95
2022-11-25T06:12:47.121Z,8.68
2022-11-25T06:15:34.515Z,8.53
2022-11-25T06:18:21.803Z,7.95
2022-11-25T06:21:10.645Z,8.20
2022-11-25T06:23:58.534Z,7.65
2022-11-25T06:26:45.964Z,10.05
2022-11-25T06:29:33.430Z,7.67
2022-11-25T06:32:20.899Z,7.47
2022-11-25T06:35:08.203Z,7.10
2022-11-25T06:37:55.726Z,8.13
2022-11-25T06:40:42.901Z,8.75
2022-11-25T06:43:31.224Z,7.90
2022-11-25T06:46:24.845Z,9.13
2022-11-25T06:49:09.067Z,15.45
2022-11-25T06:51:56.305Z,15.95
2022-11-25T06:54:43.633Z,9.25
2022-11-25T06:57:30.865Z,6.65
2022-11-25T07:00:19.048Z,6.62
2022-11-25T07:03:06.599Z,20.92
2022-11-25T07:05:55.238Z,16.40
2022-11-25T07:08:43.109Z,13.05
2022-11-25T07:11:36.579Z,8.80
2022-11-25T07:14:24.202Z,13.20
2022-11-25T07:17:12.377Z,11.30
2022-11-25T07:20:00.043Z,15.48
2022-11-25T07:22:47.412Z,12.50
2022-11-25T07:25:34.982Z,10.10
2022-11-25T07:28:22.257Z,8.53
2022-11-25T07:31:28.992Z,8.45
2022-11-25T07:34:13.191Z,6.67
2022-11-25T07:37:00.705Z,6.83
2022-11-25T07:39:47.962Z,7.10
2022-11-25T07:42:35.362Z,7.42
2022-11-25T07:45:24.334Z,6.83
2022-11-25T07:48:11.753Z,6.65
2022-11-25T07:50:59.071Z,6.97
2022-11-25T07:53:47.467Z,7.53
2022-11-25T07:56:36.598Z,7.03
2022-11-25T07:59:25.481Z,7.33
2022-11-25T08:02:12.924Z,7.37
2022-11-25T08:05:00.114Z,6.30
2022-11-25T08:07:47.792Z,7.42
2022-11-25T08:10:34.960Z,6.95
2022-11-25T08:13:22.389Z,8.05
2022-11-25T08:16:09.926Z,7.28
2022-11-25T08:18:57.607Z,7.00
2022-11-25T08:21:47.093Z,6.90
2022-11-25T08:24:34.551Z,7.22
2022-11-25T08:27:22.055Z,7.60
2022-11-25T08:30:10.010Z,7.30
2022-11-25T08:32:58.459Z,7.37
2022-11-25T08:35:45.583Z,7.50
2022-11-25T08:38:34.186Z,6.47
2022-11-25T08:41:24.800Z,6.72
2022-11-25T08:44:13.517Z,14.20
2022-11-25T08:47:01.327Z,14.63
2022-11-25T08:49:53.649Z,8.55
2022-11-25T08:52:41.015Z,8.43
2022-11-25T08:55:29.405Z,7.42
2022-11-25T08:58:17.209Z,6.62
2022-11-25T09:01:05.971Z,7.53
2022-11-25T09:03:55.592Z,7.05
2022-11-25T09:06:42.724Z,7.30
2022-11-25T09:09:30.023Z,7.15
2022-11-25T09:12:17.559Z,7.50
2022-11-25T09:15:05.603Z,7.37
2022-11-25T09:18:01.615Z,6.92
2022-11-25T09:20:48.903Z,7.70
2022-11-25T09:23:36.555Z,8.50
2022-11-25T09:26:29.785Z,11.40
2022-11-25T09:29:17.163Z,9.33
2022-11-25T09:32:05.174Z,8.08
2022-11-25T09:34:52.731Z,7.87
2022-11-25T09:37:40.198Z,7.58
2022-11-25T09:40:45.346Z,8.38
2022-11-25T09:44:11.910Z,7.47
2022-11-25T09:47:02.276Z,7.92
2022-11-25T09:50:10.753Z,7.50
2022-11-25T09:53:18.851Z,7.72
2022-11-25T09:56:09.034Z,8.10
2022-11-25T09:59:20.776Z,7.65
2022-11-25T10:02:17.448Z,7.87
2022-11-25T10:05:07.591Z,8.60
2022-11-25T10:08:03.962Z,8.10
2022-11-25T10:11:03.418Z,7.83
2022-11-25T10:13:56.953Z,8.05
2022-11-25T10:16:53.075Z,8.05
2022-11-25T10:20:17.296Z,7.95
2022-11-25T10:23:13.836Z,8.50
2022-11-25T10:26:04.080Z,8.58
2022-11-25T10:28:55.577Z,8.98
2022-11-25T10:31:44.138Z,9.00
2022-11-25T10:34:38.055Z,8.98
2022-11-25T10:37:31.678Z,8.95
2022-11-25T10:40:19.403Z,8.35
2022-11-25T10:43:14.329Z,8.88
2022-11-25T10:46:20.172Z,9.50
2022-11-25T10:49:30.286Z,10.45
2022-11-25T10:52:20.616Z,9.75
2022-11-25T10:55:14.390Z,10.20
2022-11-25T10:58:04.686Z,10.15
2022-11-25T11:00:54.884Z,9.43
2022-11-25T11:03:47.711Z,8.38
2022-11-25T11:06:37.713Z,9.63
2022-11-25T11:09:37.416Z,8.33
2022-11-25T11:12:30.262Z,8.00
2022-11-25T11:15:23.426Z,7.75
2022-11-25T11:18:28.802Z,8.55
2022-11-25T11:21:31.160Z,7.30
2022-11-25T11:24:35.452Z,7.72
2022-11-25T11:27:25.831Z,7.35
2022-11-25T11:30:20.436Z,7.85
2022-11-25T11:33:27.187Z,8.40
2022-11-25T11:36:40.273Z,9.17
2022-11-25T11:39:30.698Z,8.20
2022-11-25T11:42:23.763Z,9.45
2022-11-25T11:45:23.095Z,13.70
2022-11-25T11:48:13.770Z,7.95
2022-11-25T11:51:26.990Z,9.93
2022-11-25T11:54:26.350Z,8.70
2022-11-25T11:57:34.777Z,8.65
2022-11-25T12:00:23.244Z,7.87
2022-11-25T12:03:19.375Z,7.65
2022-11-25T12:06:07.988Z,9.08
2022-11-25T12:09:02.298Z,8.40
2022-11-25T12:11:52.643Z,7.95
2022-11-25T12:14:49.056Z,8.28
2022-11-25T12:17:39.466Z,7.97
2022-11-25T12:20:57.304Z,7.83
2022-11-25T12:23:53.530Z,8.78
2022-11-25T12:26:52.776Z,9.00
2022-11-25T12:29:55.248Z,7.92
2022-11-25T12:32:53.853Z,8.05
2022-11-25T12:35:57.155Z,8.38
2022-11-25T12:38:50.389Z,8.78
2022-11-25T12:41:49.966Z,8.95
2022-11-25T12:44:59.370Z,9.13
2022-11-25T12:47:46.876Z,8.30
2022-11-25T12:50:55.250Z,8.50
2022-11-25T12:53:51.506Z,8.10
2022-11-25T12:57:04.671Z,8.95
2022-11-25T13:00:41.132Z,8.65
2022-11-25T13:03:13.705Z,8.43
2022-11-25T13:06:20.286Z,8.68
2022-11-25T13:09:16.648Z,8.45
2022-11-25T13:12:07.634Z,8.88
2022-11-25T13:15:11.068Z,8.25
2022-11-25T13:18:04.576Z,8.03
2022-11-25T13:21:00.135Z,8.25
2022-11-25T13:23:51.983Z,8.20
2022-11-25T13:26:42.501Z,8.33
2022-11-25T13:29:32.776Z,8.63
2022-11-25T13:32:30.749Z,9.10
2022-11-25T13:35:26.721Z,7.95
2022-11-25T13:38:38.046Z,9.37
2022-11-25T13:41:37.779Z,8.13
2022-11-25T13:44:36.494Z,8.30
2022-11-25T13:47:38.881Z,8.18
2022-11-25T13:50:41.924Z,8.20
2022-11-25T13:53:26.196Z,7.70
2022-11-25T13:56:16.826Z,8.70
2022-11-25T13:59:17.011Z,7.25
2022-11-25T14:02:27.750Z,8.23
2022-11-25T14:05:36.175Z,7.30
2022-11-25T14:08:43.330Z,6.45
2022-11-25T14:11:50.415Z,6.15
2022-11-25T14:15:03.569Z,6.53
2022-11-25T14:18:53.225Z,6.15
2022-11-25T14:21:30.451Z,6.33
2022-11-25T14:24:20.956Z,5.60
2022-11-25T14:27:17.161Z,6.17
2022-11-25T14:30:10.405Z,5.90
2022-11-25T14:33:06.638Z,5.70
2022-11-25T14:35:57.156Z,6.28
2022-11-25T14:38:56.507Z,5.70
2022-11-25T14:41:46.696Z,5.62
2022-11-25T14:44:42.817Z,5.65
2022-11-25T14:47:37.614Z,5.20
2022-11-25T14:50:40.449Z,5.45
2022-11-25T14:53:14.672Z,5.87
2022-11-25T14:56:02.663Z,6.37
2022-11-25T14:58:54.600Z,5.80
2022-11-25T15:01:54.034Z,6.00
2022-11-25T15:04:42.717Z,6.80
2022-11-25T15:07:31.520Z,6.00
2022-11-25T15:10:36.394Z,6.47
2022-11-25T15:13:29.638Z,6.30
2022-11-25T15:16:24.796Z,5.97
2022-11-25T15:19:23.101Z,6.58
2022-11-25T15:22:28.481Z,6.40
2022-11-25T15:25:11.369Z,6.50
2022-11-25T15:27:58.471Z,5.78
2022-11-25T15:30:58.254Z,6.37
2022-11-25T15:33:49.757Z,6.90
2022-11-25T15:36:37.591Z,7.00
2022-11-25T15:39:27.716Z,7.92
2022-11-25T15:42:23.045Z,8.88
2022-11-25T15:45:13.102Z,8.45
2022-11-25T15:48:00.945Z,8.85
2022-11-25T15:50:48.771Z,7.20
2022-11-25T15:53:39.125Z,7.22
2022-11-25T15:56:28.150Z,8.13
2022-11-25T15:59:41.193Z,8.23
2022-11-25T16:02:37.570Z,7.60
2022-11-25T16:05:29.001Z,7.28
2022-11-25T16:08:25.592Z,7.55
2022-11-25T16:11:17.132Z,7.12
2022-11-25T16:14:31.713Z,7.15
2022-11-25T16:17:19.777Z,6.72
2022-11-25T16:20:19.675Z,6.58
2022-11-25T16:23:12.730Z,7.10
2022-11-25T16:26:03.498Z,6.65
2022-11-25T16:28:59.689Z,6.97
2022-11-25T16:31:48.900Z,7.03
2022-11-25T16:34:36.698Z,7.22
2022-11-25T16:37:26.897Z,7.20
2022-11-25T16:40:15.324Z,6.90
2022-11-25T16:43:02.728Z,7.78
2022-11-25T16:45:54.533Z,6.53
2022-11-25T16:48:41.923Z,7.10
2022-11-25T16:51:29.322Z,6.37
2022-11-25T16:54:18.119Z,6.50
2022-11-25T16:57:07.504Z,6.47
2022-11-25T16:59:58.853Z,7.30
2022-11-25T17:02:45.685Z,6.95
2022-11-25T17:05:32.806Z,7.10
2022-11-25T17:08:20.114Z,9.85
2022-11-25T17:11:07.400Z,7.50
2022-11-25T17:13:56.543Z,6.25
2022-11-25T17:16:44.404Z,6.85
2022-11-25T17:19:31.636Z,7.25
2022-11-25T17:22:24.092Z,7.35
2022-11-25T17:25:13.736Z,7.97
2022-11-25T17:28:02.524Z,7.20
2022-11-25T17:30:50.023Z,7.22
2022-11-25T17:33:37.582Z,7.75
2022-11-25T17:36:26.427Z,7.08
2022-11-25T17:39:15.128Z,6.90
2022-11-25T17:42:04.128Z,7.83
2022-11-25T17:44:54.237Z,8.00
2022-11-25T17:47:40.477Z,7.47
2022-11-25T17:50:27.835Z,7.92
2022-11-25T17:53:15.019Z,7.67
2022-11-25T17:56:02.589Z,7.80
2022-11-25T17:58:49.800Z,7.15
2022-11-25T18:01:37.369Z,12.60
2022-11-25T18:04:27.594Z,7.97
2022-11-25T18:07:15.357Z,12.37
2022-11-25T18:10:02.557Z,11.40
2022-11-25T18:12:55.611Z,18.32
2022-11-25T18:15:43.970Z,18.45
2022-11-25T18:18:31.602Z,14.50
2022-11-25T18:21:19.893Z,10.78
2022-11-25T18:24:07.947Z,9.50
2022-11-25T18:26:56.114Z,9.03
2022-11-25T18:29:43.591Z,10.78
2022-11-25T18:32:31.110Z,10.53
2022-11-25T18:35:25.043Z,10.08
2022-11-25T18:38:12.921Z,9.70
2022-11-25T18:41:01.904Z,9.30
2022-11-25T18:43:49.125Z,10.45
2022-11-25T18:46:39.586Z,8.78
2022-11-25T18:49:27.346Z,8.20
2022-11-25T18:52:14.621Z,8.60
2022-11-25T18:55:02.020Z,8.30
2022-11-25T18:57:55.331Z,7.95
2022-11-25T19:00:43.099Z,8.48
2022-11-25T19:03:30.626Z,7.75
2022-11-25T19:06:18.381Z,8.73
2022-11-25T19:09:06.721Z,7.95
2022-11-25T19:11:56.450Z,8.35
2022-11-25T19:14:43.993Z,9.48
2022-11-25T19:17:31.203Z,9.43
2022-11-25T19:20:21.404Z,9.13
2022-11-25T19:23:25.085Z,8.03
2022-11-25T19:26:27.164Z,8.73
2022-11-25T19:29:29.832Z,8.45
2022-11-25T19:32:25.301Z,7.37
2022-11-25T19:35:15.960Z,7.10
2022-11-25T19:38:05.074Z,8.23
2022-11-25T19:40:55.275Z,8.75
2022-11-25T19:43:42.487Z,9.78
2022-11-25T19:46:41.189Z,9.38
2022-11-25T19:49:22.905Z,9.00
2022-11-25T19:52:19.360Z,9.33
2022-11-25T19:55:18.350Z,11.15
2022-11-25T19:58:05.855Z,10.03
2022-11-25T20:00:53.395Z,9.35
2022-11-25T20:03:46.421Z,9.48
2022-11-25T20:06:32.098Z,11.00
2022-11-25T20:09:19.162Z,10.63
2022-11-25T20:12:26.375Z,11.35
2022-11-25T20:15:14.103Z,10.35
2022-11-25T20:18:02.485Z,9.35
2022-11-25T20:20:54.435Z,9.38
2022-11-25T20:23:44.303Z,8.98
2022-11-25T20:26:34.775Z,9.20
2022-11-25T20:29:30.053Z,8.95
2022-11-25T20:32:16.116Z,9.35
2022-11-25T20:35:03.309Z,9.08
2022-11-25T20:37:52.685Z,9.50
2022-11-25T20:40:45.373Z,8.18
2022-11-25T20:43:41.568Z,8.95
2022-11-25T20:46:30.791Z,10.38
2022-11-25T20:49:26.213Z,10.90
2022-11-25T20:52:31.391Z,10.48
2022-11-25T20:55:24.722Z,10.68
2022-11-25T20:58:24.408Z,11.90
2022-11-25T21:01:13.973Z,10.32
2022-11-25T21:04:01.027Z,10.28
2022-11-25T21:06:48.598Z,9.83
2022-11-25T21:09:37.885Z,8.53
2022-11-25T21:12:25.531Z,7.25
2022-11-25T21:15:19.062Z,7.60
2022-11-25T21:18:06.526Z,7.90
2022-11-25T21:20:55.775Z,7.17
2022-11-25T21:23:43.717Z,7.12
2022-11-25T21:26:30.937Z,7.80
2022-11-25T21:29:19.073Z,7.50
2022-11-25T21:32:20.912Z,7.40
2022-11-25T21:35:10.133Z,6.67
2022-11-25T21:37:57.849Z,6.12
2022-11-25T21:40:52.311Z,5.83
2022-11-25T21:43:42.791Z,11.90
2022-11-25T21:46:30.258Z,5.15
2022-11-25T21:49:17.226Z,4.72
2022-11-25T21:52:04.750Z,4.87
2022-11-25T21:54:52.077Z,4.37
2022-11-25T21:57:39.867Z,4.45
2022-11-25T22:00:27.428Z,4.60
2022-11-25T22:03:19.953Z,4.85
2022-11-25T22:06:13.223Z,4.70
2022-11-25T22:09:00.611Z,4.78
2022-11-25T22:11:50.409Z,5.25
2022-11-25T22:14:40.084Z,5.90
2022-11-25T22:17:26.797Z,5.28
2022-11-25T22:20:29.409Z,5.72
2022-11-25T22:23:18.991Z,4.80
2022-11-25T22:26:07.336Z,4.47
2022-11-25T22:28:54.692Z,4.83
2022-11-25T22:31:42.707Z,5.20
2022-11-25T22:34:30.323Z,4.00
2022-11-25T22:37:20.769Z,4.80
2022-11-25T22:40:08.959Z,4.08
2022-11-25T22:42:57.032Z,3.47
2022-11-25T22:45:44.511Z,4.22
2022-11-25T22:48:34.463Z,3.67
2022-11-25T22:51:25.178Z,3.65
2022-11-25T22:54:13.036Z,4.00
2022-11-25T22:57:00.406Z,4.15
2022-11-25T22:59:47.982Z,3.90
2022-11-25T23:02:35.976Z,3.72
2022-11-25T23:05:32.501Z,4.10
2022-11-25T23:08:21.190Z,3.85
2022-11-25T23:11:10.057Z,4.25
2022-11-25T23:13:57.330Z,6.15
2022-11-25T23:16:45.079Z,7.55
2022-11-25T23:19:32.399Z,6.00
2022-11-25T23:22:20.347Z,8.03
2022-11-25T23:25:10.765Z,6.50
2022-11-25T23:27:57.966Z,6.08
2022-11-25T23:30:53.673Z,5.22
2022-11-25T23:33:49.508Z,5.90
2022-11-25T23:36:47.931Z,5.97
2022-11-25T23:39:35.292Z,7.95
2022-11-25T23:42:22.545Z,9.10
2022-11-25T23:45:13.722Z,9.33
2022-11-25T23:48:01.108Z,9.13
2022-11-25T23:50:49.259Z,8.58
2022-11-25T23:53:39.908Z,9.80
2022-11-25T23:56:28.711Z,9.68
2022-11-25T23:59:17.109Z,9.80
